Hauptseite
METAR-TAF:

METAR-TAF

Flughäfen :

Flughafen Vigo

Vigo, Spanien

Breite: 42-13N, Länge: 008-38W, Höhe: 264 m

Beobachtung

Neuester Wetterbericht von vor 15 Minuten, um 07:00 UTC
Wind 3 kt aus West/Südwest, variierte zwischen Süd/Südwest und West/Nordwest
Temperatur 7°C
Luftfeuchtigkeit 81%
Luftdruck 1018 hPa
Sichtweite 10 km oder mehr
keine Wolken unter 1500 m und keine Kumulonimbus oder Gewitterwolken

METAR: LEVX 240700Z 25003KT 210V290 CAVOK 07/04 Q1018 NOSIG

Zeit: 08:15 (07:15 UTC)

Prognose

Neuester Wetterbericht von vor 2 Stunden und 15 Minuten, um 05:00 UTC
Gültige Prognose vom 24 um 06 UTC bis 25 um 06 UTC
Wind 5 kt aus Südwest
Sichtweite 10 km oder mehr
keine Wolken unter 1500 m und keine Kumulonimbus oder Gewitterwolken

TAF: LEVX 240500Z 2406/2506 23005KT CAVOK TX13/2415Z TN03/2506Z

Wetterbeobachtungen und Prognosen von mehr als 4000 Flughäfen (METAR und TAF Bericht).

Die verfügbaren Stationen werden durch gelbe und rote Markierungen auf der Karte dargestellt.

Führen Sie die Maus auf sie, um den Namen der Station zu sehen.

Darauf klicken, um die Beobachtung von Wetterbeobachtungen und Prognosen zu sehen.

Um die Karte zu ändern : klicken Sie auf den grünen Tasten mit einem schwarzen Kreuz Zum Vergrößern, auf den grünen Button mit einem Gedankenstrich zu verkleinern, oder auf die grünen Pfeile für benachbarte Karten.


METAR-TAF: